createdAt,value
2023-02-14T00:04:50.901Z,8.00
2023-02-14T00:09:53.159Z,7.60
2023-02-14T00:15:14.206Z,7.33
2023-02-14T00:20:16.620Z,6.77
2023-02-14T00:25:19.225Z,9.27
2023-02-14T00:30:21.688Z,7.33
2023-02-14T00:35:23.962Z,7.17
2023-02-14T00:40:26.199Z,7.23
2023-02-14T00:45:28.467Z,7.30
2023-02-14T00:50:30.733Z,6.37
2023-02-14T00:55:33.009Z,7.07
2023-02-14T01:00:35.284Z,7.17
2023-02-14T01:05:37.739Z,6.77
2023-02-14T01:10:40.677Z,6.57
2023-02-14T01:15:46.126Z,8.30
2023-02-14T01:20:48.409Z,6.77
2023-02-14T01:25:50.677Z,6.47
2023-02-14T01:30:52.934Z,10.37
2023-02-14T01:35:55.672Z,7.97
2023-02-14T01:40:58.387Z,6.90
2023-02-14T01:46:00.843Z,8.10
2023-02-14T01:51:03.275Z,7.50
2023-02-14T01:56:10.224Z,10.50
2023-02-14T02:01:17.887Z,10.53
2023-02-14T02:06:30.748Z,6.60
2023-02-14T02:11:33.589Z,7.30
2023-02-14T02:17:00.112Z,8.53
2023-02-14T02:22:23.665Z,7.80
2023-02-14T02:27:38.848Z,5.90
2023-02-14T02:33:25.056Z,8.17
2023-02-14T02:39:02.293Z,6.47
2023-02-14T02:44:07.364Z,6.93
2023-02-14T02:49:43.926Z,8.83
2023-02-14T02:54:53.793Z,7.27
2023-02-14T02:59:57.937Z,7.47
2023-02-14T03:05:05.538Z,7.33
2023-02-14T03:10:15.537Z,7.37
2023-02-14T03:15:19.132Z,7.13
2023-02-14T03:20:29.288Z,6.63
2023-02-14T03:25:41.652Z,6.90
2023-02-14T03:31:13.168Z,6.53
2023-02-14T03:36:23.001Z,7.40
2023-02-14T03:41:29.858Z,6.73
2023-02-14T03:46:45.106Z,7.37
2023-02-14T03:51:50.670Z,7.03
2023-02-14T03:57:08.300Z,6.13
2023-02-14T04:02:32.233Z,6.57
2023-02-14T04:07:47.929Z,7.40
2023-02-14T04:12:50.532Z,6.77
2023-02-14T04:18:11.658Z,7.20
2023-02-14T04:23:13.898Z,7.30
2023-02-14T04:28:16.296Z,6.70
2023-02-14T04:33:18.555Z,6.67
2023-02-14T04:38:20.845Z,7.17
2023-02-14T04:43:23.111Z,6.60
2023-02-14T04:48:25.471Z,6.43
2023-02-14T04:53:27.820Z,5.97
2023-02-14T04:58:30.064Z,8.13
2023-02-14T05:03:32.329Z,6.90
2023-02-14T05:08:34.619Z,6.77
2023-02-14T05:13:37.944Z,6.00
2023-02-14T05:18:40.468Z,6.80
2023-02-14T05:23:42.758Z,6.43
2023-02-14T05:28:45.322Z,7.63
2023-02-14T05:33:47.605Z,7.10
2023-02-14T05:38:49.902Z,6.47
2023-02-14T05:43:52.160Z,6.77
2023-02-14T05:48:54.420Z,6.47
2023-02-14T05:53:59.936Z,6.73
2023-02-14T05:59:02.239Z,6.70
2023-02-14T06:04:04.582Z,6.73
2023-02-14T06:09:06.954Z,6.63
2023-02-14T06:14:09.226Z,6.43
2023-02-14T06:19:11.506Z,6.33
2023-02-14T06:24:14.272Z,6.17
2023-02-14T06:29:17.490Z,6.23
2023-02-14T06:34:19.858Z,7.10
2023-02-14T06:39:22.160Z,8.07
2023-02-14T06:44:24.480Z,6.80
2023-02-14T06:49:26.752Z,7.33
2023-02-14T06:54:28.996Z,6.97
2023-02-14T06:59:31.264Z,5.93
2023-02-14T07:04:33.591Z,5.80
2023-02-14T07:09:36.133Z,5.63
2023-02-14T07:14:38.474Z,5.90
2023-02-14T07:19:41.132Z,5.97
2023-02-14T07:24:43.389Z,5.60
2023-02-14T07:29:49.026Z,6.13
2023-02-14T07:34:51.957Z,6.60
2023-02-14T07:39:54.268Z,6.53
2023-02-14T07:44:56.613Z,5.60
2023-02-14T07:49:58.922Z,6.07
2023-02-14T07:55:01.262Z,8.43
2023-02-14T08:00:12.643Z,6.53
2023-02-14T08:05:15.560Z,5.93
2023-02-14T08:10:18.343Z,5.70
2023-02-14T08:15:41.627Z,5.57
2023-02-14T08:20:45.378Z,6.93
2023-02-14T08:25:52.378Z,6.07
2023-02-14T08:30:55.301Z,5.90
2023-02-14T08:35:57.686Z,4.60
2023-02-14T08:41:03.765Z,4.60
2023-02-14T08:46:06.948Z,4.43
2023-02-14T08:51:12.367Z,4.20
2023-02-14T08:56:15.367Z,3.93
2023-02-14T09:01:18.351Z,4.33
2023-02-14T09:06:20.901Z,4.57
2023-02-14T09:11:24.793Z,4.27
2023-02-14T09:16:27.238Z,3.00
2023-02-14T09:21:30.193Z,3.97
2023-02-14T09:26:32.799Z,3.23
2023-02-14T09:31:35.403Z,1.87
2023-02-14T09:36:56.771Z,1.80
2023-02-14T09:42:19.571Z,2.10
2023-02-14T09:47:40.903Z,1.93
2023-02-14T09:52:43.241Z,2.33
2023-02-14T09:58:03.467Z,2.60
2023-02-14T10:03:27.494Z,2.67
2023-02-14T10:08:58.047Z,2.03
2023-02-14T10:14:08.715Z,1.63
2023-02-14T10:19:16.697Z,1.67
2023-02-14T10:24:28.717Z,2.30
2023-02-14T10:29:31.057Z,1.90
2023-02-14T10:34:56.511Z,2.27
2023-02-14T10:40:23.365Z,2.20
2023-02-14T10:46:07.429Z,2.30
2023-02-14T10:51:36.803Z,3.27
2023-02-14T10:56:45.646Z,2.67
2023-02-14T11:01:51.666Z,2.30
2023-02-14T11:06:54.023Z,2.60
2023-02-14T11:12:00.289Z,3.90
2023-02-14T11:17:46.766Z,2.20
2023-02-14T11:22:52.515Z,2.83
2023-02-14T11:33:40.361Z,2.90
2023-02-14T11:38:46.069Z,3.47
2023-02-14T11:43:49.358Z,3.20
2023-02-14T11:48:59.144Z,2.97
2023-02-14T11:54:05.028Z,3.20
2023-02-14T11:59:07.536Z,3.77
2023-02-14T12:04:21.239Z,2.80
2023-02-14T12:20:58.438Z,3.17
2023-02-14T12:26:35.044Z,2.43
2023-02-14T12:31:37.437Z,2.30
2023-02-14T12:37:31.141Z,2.07
2023-02-14T12:44:14.377Z,4.70
2023-02-14T12:56:36.488Z,3.20
2023-02-14T13:08:25.050Z,2.87
2023-02-14T13:26:06.404Z,4.27
2023-02-14T13:36:41.174Z,5.43
2023-02-14T13:41:43.824Z,3.10
2023-02-14T13:46:51.969Z,6.00
2023-02-14T13:52:06.504Z,3.30
2023-02-14T13:57:59.520Z,3.30
2023-02-14T14:03:02.542Z,2.67
2023-02-14T14:08:23.479Z,2.60
2023-02-14T14:13:41.029Z,12.53
2023-02-14T14:18:43.718Z,5.60
2023-02-14T14:24:02.013Z,3.60
2023-02-14T14:29:24.625Z,6.70
2023-02-14T14:34:28.468Z,15.67
2023-02-14T14:39:33.679Z,5.77
2023-02-14T14:44:43.928Z,4.50
2023-02-14T14:49:48.745Z,3.60
2023-02-14T14:54:51.318Z,4.67
2023-02-14T15:00:20.037Z,4.73
2023-02-14T15:05:37.762Z,8.57
2023-02-14T15:10:42.713Z,11.30
2023-02-14T15:15:50.897Z,5.23
2023-02-14T15:20:53.851Z,12.53
2023-02-14T15:25:56.307Z,6.50
2023-02-14T15:31:02.350Z,8.70
2023-02-14T15:36:08.779Z,24.07
2023-02-14T15:41:13.865Z,29.63
2023-02-14T15:46:29.583Z,50.93
2023-02-14T15:51:35.808Z,36.93
2023-02-14T15:56:49.060Z,20.00
2023-02-14T16:01:55.760Z,11.03
2023-02-14T16:07:25.347Z,9.40
2023-02-14T16:12:36.984Z,7.17
2023-02-14T16:17:44.172Z,8.73
2023-02-14T16:22:46.844Z,9.63
2023-02-14T16:27:49.325Z,9.67
2023-02-14T16:32:53.784Z,9.47
2023-02-14T16:37:56.292Z,14.60
2023-02-14T16:42:59.273Z,9.03
2023-02-14T16:48:01.897Z,9.67
2023-02-14T16:53:06.538Z,17.17
2023-02-14T16:58:09.174Z,12.83
2023-02-14T17:03:11.644Z,24.97
2023-02-14T17:08:16.004Z,22.47
2023-02-14T17:13:22.182Z,37.87
2023-02-14T17:18:25.388Z,28.10
2023-02-14T17:23:27.724Z,14.17
2023-02-14T17:28:30.034Z,64.30
2023-02-14T17:33:33.462Z,42.80
2023-02-14T17:38:36.022Z,40.47
2023-02-14T17:43:38.273Z,73.77
2023-02-14T17:48:41.670Z,40.43
2023-02-14T17:53:44.292Z,36.30
2023-02-14T17:58:48.510Z,33.50
2023-02-14T18:03:54.290Z,32.73
2023-02-14T18:08:59.610Z,35.27
2023-02-14T18:14:03.703Z,35.43
2023-02-14T18:19:06.969Z,38.37
2023-02-14T18:24:10.051Z,42.57
2023-02-14T18:29:12.747Z,67.67
2023-02-14T18:34:15.075Z,95.03
2023-02-14T18:39:17.380Z,57.17
2023-02-14T18:44:20.795Z,66.37
2023-02-14T18:49:23.490Z,42.57
2023-02-14T18:54:25.907Z,43.23
2023-02-14T18:59:28.149Z,30.50
2023-02-14T19:04:30.390Z,28.97
2023-02-14T19:09:38.933Z,38.50
2023-02-14T19:14:41.374Z,69.27
2023-02-14T19:19:43.628Z,56.87
2023-02-14T19:24:45.946Z,37.97
2023-02-14T19:29:48.331Z,37.93
2023-02-14T19:34:50.601Z,56.27
2023-02-14T19:39:53.001Z,39.43
2023-02-14T19:44:55.267Z,35.63
2023-02-14T19:49:59.547Z,47.60
2023-02-14T19:55:03.327Z,32.20
2023-02-14T20:00:08.635Z,34.27
2023-02-14T20:05:23.536Z,33.60
2023-02-14T20:10:25.824Z,56.27
2023-02-14T20:15:29.119Z,72.57
2023-02-14T20:20:54.334Z,44.47
2023-02-14T20:25:57.109Z,58.47
2023-02-14T20:30:59.605Z,40.47
2023-02-14T20:36:02.483Z,45.70
2023-02-14T20:41:10.466Z,34.27
2023-02-14T20:46:13.017Z,62.97
2023-02-14T20:51:17.934Z,37.27
2023-02-14T20:56:22.718Z,33.27
2023-02-14T21:01:25.194Z,41.37
2023-02-14T21:06:31.049Z,38.60
2023-02-14T21:11:33.355Z,45.60
2023-02-14T21:16:35.632Z,39.90
2023-02-14T21:21:39.586Z,42.73
2023-02-14T21:26:42.700Z,48.47
2023-02-14T21:31:45.146Z,64.23
2023-02-14T21:36:47.559Z,65.47
2023-02-14T21:41:49.821Z,66.17
2023-02-14T21:46:52.081Z,50.30
2023-02-14T21:51:54.871Z,47.17
2023-02-14T21:56:57.176Z,53.20
2023-02-14T22:01:59.429Z,48.57
2023-02-14T22:07:01.819Z,47.40
2023-02-14T22:12:04.233Z,57.10
2023-02-14T22:17:06.485Z,59.60
2023-02-14T22:22:08.717Z,60.80
2023-02-14T22:27:11.028Z,65.27
2023-02-14T22:32:13.336Z,70.57
2023-02-14T22:37:15.700Z,65.93
2023-02-14T22:42:18.032Z,78.60
2023-02-14T22:47:20.362Z,84.93
2023-02-14T22:52:22.698Z,88.00
2023-02-14T22:57:25.730Z,89.73
2023-02-14T23:02:28.031Z,85.17
2023-02-14T23:07:30.317Z,94.93
2023-02-14T23:12:50.981Z,89.73
2023-02-14T23:18:12.220Z,96.03
2023-02-14T23:23:16.872Z,92.73
2023-02-14T23:28:19.112Z,84.50
2023-02-14T23:33:21.374Z,83.53
2023-02-14T23:38:23.615Z,101.37
2023-02-14T23:43:25.889Z,87.77
2023-02-14T23:48:28.833Z,84.67
2023-02-14T23:53:31.091Z,82.47
2023-02-14T23:58:33.344Z,81.77
